sensor_id;sensor_type;location;lat;lon;timestamp;pressure;altitude;pressure_sealevel;temperature;humidity
69402;BME280;56589;51.992;5.924;2023-04-06T00:00:22;101292.13;;;3.73;47.62
69402;BME280;56589;51.992;5.924;2023-04-06T00:02:48;101285.19;;;3.72;47.80
69402;BME280;56589;51.992;5.924;2023-04-06T00:05:13;101286.94;;;3.72;47.47
69402;BME280;56589;51.992;5.924;2023-04-06T00:07:39;101276.72;;;3.67;47.55
69402;BME280;56589;51.992;5.924;2023-04-06T00:10:06;101265.59;;;3.62;47.98
69402;BME280;56589;51.992;5.924;2023-04-06T00:12:35;101271.84;;;3.55;47.96
69402;BME280;56589;51.992;5.924;2023-04-06T00:15:01;101268.41;;;3.53;47.84
69402;BME280;56589;51.992;5.924;2023-04-06T00:17:27;101265.88;;;3.51;47.88
69402;BME280;56589;51.992;5.924;2023-04-06T00:19:53;101268.41;;;3.53;48.35
69402;BME280;56589;51.992;5.924;2023-04-06T00:22:19;101270.13;;;3.54;48.06
69402;BME280;56589;51.992;5.924;2023-04-06T00:24:45;101264.06;;;3.55;48.24
69402;BME280;56589;51.992;5.924;2023-04-06T00:27:10;101261.47;;;3.55;48.37
69402;BME280;56589;51.992;5.924;2023-04-06T00:29:39;101257.13;;;3.55;48.38
69402;BME280;56589;51.992;5.924;2023-04-06T00:32:05;101257.97;;;3.56;48.46
69402;BME280;56589;51.992;5.924;2023-04-06T00:34:31;101259.72;;;3.55;48.13
69402;BME280;56589;51.992;5.924;2023-04-06T00:36:57;101250.22;;;3.54;48.21
69402;BME280;56589;51.992;5.924;2023-04-06T00:39:23;101248.50;;;3.53;48.75
69402;BME280;56589;51.992;5.924;2023-04-06T00:41:52;101244.31;;;3.49;48.91
69402;BME280;56589;51.992;5.924;2023-04-06T00:44:19;101238.28;;;3.47;48.84
69402;BME280;56589;51.992;5.924;2023-04-06T00:46:48;101234.88;;;3.45;49.00
69402;BME280;56589;51.992;5.924;2023-04-06T00:49:14;101241.03;;;3.41;48.99
69402;BME280;56589;51.992;5.924;2023-04-06T00:51:39;101236.81;;;3.39;48.83
69402;BME280;56589;51.992;5.924;2023-04-06T00:54:05;101234.25;;;3.37;48.98
69402;BME280;56589;51.992;5.924;2023-04-06T00:56:33;101239.47;;;3.36;49.21
69402;BME280;56589;51.992;5.924;2023-04-06T00:59:00;101233.53;;;3.32;48.92
69402;BME280;56589;51.992;5.924;2023-04-06T01:01:27;101231.88;;;3.28;49.22
69402;BME280;56589;51.992;5.924;2023-04-06T01:03:56;101229.41;;;3.25;49.25
69402;BME280;56589;51.992;5.924;2023-04-06T01:06:22;101220.81;;;3.21;49.45
69402;BME280;56589;51.992;5.924;2023-04-06T01:08:48;101219.19;;;3.19;49.74
69402;BME280;56589;51.992;5.924;2023-04-06T01:11:14;101215.75;;;3.17;49.72
69402;BME280;56589;51.992;5.924;2023-04-06T01:13:39;101219.34;;;3.13;50.09
69402;BME280;56589;51.992;5.924;2023-04-06T01:16:06;101211.56;;;3.11;49.65
69402;BME280;56589;51.992;5.924;2023-04-06T01:18:32;101209.91;;;3.09;49.80
69402;BME280;56589;51.992;5.924;2023-04-06T01:21:00;101207.38;;;3.07;50.18
69402;BME280;56589;51.992;5.924;2023-04-06T01:23:31;101205.69;;;3.06;50.34
69402;BME280;56589;51.992;5.924;2023-04-06T01:25:57;101207.44;;;3.06;50.09
69402;BME280;56589;51.992;5.924;2023-04-06T01:28:23;101204.00;;;3.03;50.30
69402;BME280;56589;51.992;5.924;2023-04-06T01:30:49;101196.25;;;3.02;50.59
69402;BME280;56589;51.992;5.924;2023-04-06T01:33:14;101200.66;;;2.98;50.57
69402;BME280;56589;51.992;5.924;2023-04-06T01:35:40;101189.53;;;2.95;50.90
69402;BME280;56589;51.992;5.924;2023-04-06T01:38:06;101198.22;;;2.94;50.56
69402;BME280;56589;51.992;5.924;2023-04-06T01:40:36;101189.59;;;2.93;50.79
69402;BME280;56589;51.992;5.924;2023-04-06T01:43:03;101187.84;;;2.94;50.65
69402;BME280;56589;51.992;5.924;2023-04-06T01:45:29;101188.69;;;2.94;51.07
69402;BME280;56589;51.992;5.924;2023-04-06T01:47:54;101184.41;;;2.93;51.37
69402;BME280;56589;51.992;5.924;2023-04-06T01:50:20;101188.72;;;2.93;51.28
69402;BME280;56589;51.992;5.924;2023-04-06T01:52:46;101185.31;;;2.91;51.07
69402;BME280;56589;51.992;5.924;2023-04-06T01:55:12;101177.59;;;2.89;51.39
69402;BME280;56589;51.992;5.924;2023-04-06T01:57:40;101176.78;;;2.87;51.25
69402;BME280;56589;51.992;5.924;2023-04-06T02:00:07;101173.34;;;2.85;51.60
69402;BME280;56589;51.992;5.924;2023-04-06T02:02:34;101174.25;;;2.84;52.07
69402;BME280;56589;51.992;5.924;2023-04-06T02:04:59;101170.91;;;2.81;51.71
69402;BME280;56589;51.992;5.924;2023-04-06T02:07:25;101176.09;;;2.79;51.75
69402;BME280;56589;51.992;5.924;2023-04-06T02:09:54;101171.81;;;2.78;51.72
69402;BME280;56589;51.992;5.924;2023-04-06T02:12:20;101163.13;;;2.79;51.73
69402;BME280;56589;51.992;5.924;2023-04-06T02:14:49;101162.28;;;2.78;51.95
69402;BME280;56589;51.992;5.924;2023-04-06T02:17:14;101164.84;;;2.80;51.92
69402;BME280;56589;51.992;5.924;2023-04-06T02:19:40;101166.59;;;2.80;51.77
69402;BME280;56589;51.992;5.924;2023-04-06T02:22:06;101159.66;;;2.80;51.65
69402;BME280;56589;51.992;5.924;2023-04-06T02:24:32;101155.38;;;2.79;52.44
69402;BME280;56589;51.992;5.924;2023-04-06T02:26:58;101149.50;;;2.72;52.67
69402;BME280;56589;51.992;5.924;2023-04-06T02:29:25;101141.81;;;2.68;52.62
69402;BME280;56589;51.992;5.924;2023-04-06T02:31:53;101147.09;;;2.65;52.65
69402;BME280;56589;51.992;5.924;2023-04-06T02:34:19;101148.03;;;2.62;52.59
69402;BME280;56589;51.992;5.924;2023-04-06T02:36:45;101141.13;;;2.61;52.60
69402;BME280;56589;51.992;5.924;2023-04-06T02:39:10;101128.25;;;2.58;53.08
69402;BME280;56589;51.992;5.924;2023-04-06T02:41:36;101141.28;;;2.55;53.15
69402;BME280;56589;51.992;5.924;2023-04-06T02:44:02;101140.47;;;2.53;53.38
69402;BME280;56589;51.992;5.924;2023-04-06T02:46:29;101137.97;;;2.50;53.37
69402;BME280;56589;51.992;5.924;2023-04-06T02:48:57;101138.88;;;2.47;53.46
69402;BME280;56589;51.992;5.924;2023-04-06T02:51:23;101137.19;;;2.46;53.55
69402;BME280;56589;51.992;5.924;2023-04-06T02:53:48;101142.38;;;2.46;53.36
69402;BME280;56589;51.992;5.924;2023-04-06T02:56:14;101134.66;;;2.45;53.66
69402;BME280;56589;51.992;5.924;2023-04-06T02:58:40;101131.22;;;2.44;53.89
69402;BME280;56589;51.992;5.924;2023-04-06T03:01:05;101132.06;;;2.43;53.92
69402;BME280;56589;51.992;5.924;2023-04-06T03:03:31;101120.84;;;2.43;54.10
69402;BME280;56589;51.992;5.924;2023-04-06T03:06:00;101130.31;;;2.45;53.90
69402;BME280;56589;51.992;5.924;2023-04-06T03:08:25;101126.72;;;2.49;54.09
69402;BME280;56589;51.992;5.924;2023-04-06T03:10:51;101120.59;;;2.54;54.30
69402;BME280;56589;51.992;5.924;2023-04-06T03:13:17;101119.69;;;2.56;53.92
69402;BME280;56589;51.992;5.924;2023-04-06T03:15:43;101123.03;;;2.60;53.93
69402;BME280;56589;51.992;5.924;2023-04-06T03:18:09;101116.94;;;2.62;54.47
69402;BME280;56589;51.992;5.924;2023-04-06T03:20:35;101116.78;;;2.67;54.00
69402;BME280;56589;51.992;5.924;2023-04-06T03:23:03;101119.28;;;2.71;54.20
69402;BME280;56589;51.992;5.924;2023-04-06T03:25:29;101107.09;;;2.73;54.40
69402;BME280;56589;51.992;5.924;2023-04-06T03:27:55;101108.75;;;2.77;54.22
69402;BME280;56589;51.992;5.924;2023-04-06T03:30:22;101111.28;;;2.81;54.16
69402;BME280;56589;51.992;5.924;2023-04-06T03:32:48;101111.22;;;2.82;54.45
69402;BME280;56589;51.992;5.924;2023-04-06T03:35:14;101100.84;;;2.82;54.85
69402;BME280;56589;51.992;5.924;2023-04-06T03:37:40;101109.47;;;2.83;54.93
69402;BME280;56589;51.992;5.924;2023-04-06T03:40:09;101104.28;;;2.83;54.79
69402;BME280;56589;51.992;5.924;2023-04-06T03:42:36;101104.28;;;2.83;55.01
69402;BME280;56589;51.992;5.924;2023-04-06T03:45:02;101099.94;;;2.83;55.14
69402;BME280;56589;51.992;5.924;2023-04-06T03:47:28;101100.84;;;2.82;55.26
69402;BME280;56589;51.992;5.924;2023-04-06T03:49:54;101102.53;;;2.83;55.05
69402;BME280;56589;51.992;5.924;2023-04-06T03:52:19;101099.09;;;2.83;55.27
69402;BME280;56589;51.992;5.924;2023-04-06T03:54:45;101096.50;;;2.83;55.65
69402;BME280;56589;51.992;5.924;2023-04-06T03:57:13;101100.00;;;2.82;55.24
69402;BME280;56589;51.992;5.924;2023-04-06T03:59:39;101094.75;;;2.83;55.37
69402;BME280;56589;51.992;5.924;2023-04-06T04:02:05;101091.31;;;2.83;55.61
69402;BME280;56589;51.992;5.924;2023-04-06T04:04:31;101097.34;;;2.83;55.47
69402;BME280;56589;51.992;5.924;2023-04-06T04:06:57;101098.31;;;2.81;55.57
69402;BME280;56589;51.992;5.924;2023-04-06T04:09:22;101095.66;;;2.82;55.63
69402;BME280;56589;51.992;5.924;2023-04-06T04:11:48;101098.22;;;2.84;55.80
69402;BME280;56589;51.992;5.924;2023-04-06T04:14:16;101097.41;;;2.80;55.73
69402;BME280;56589;51.992;5.924;2023-04-06T04:16:42;101098.31;;;2.81;55.65
69402;BME280;56589;51.992;5.924;2023-04-06T04:19:08;101096.56;;;2.80;55.97
69402;BME280;56589;51.992;5.924;2023-04-06T04:21:34;101096.50;;;2.83;55.56
69402;BME280;56589;51.992;5.924;2023-04-06T04:24:08;101101.75;;;2.81;55.96
69402;BME280;56589;51.992;5.924;2023-04-06T04:26:33;101104.28;;;2.83;55.76
69402;BME280;56589;51.992;5.924;2023-04-06T04:28:59;101107.72;;;2.83;55.51
69402;BME280;56589;51.992;5.924;2023-04-06T04:31:28;101108.56;;;2.84;55.80
69402;BME280;56589;51.992;5.924;2023-04-06T04:33:53;101112.88;;;2.85;55.87
69402;BME280;56589;51.992;5.924;2023-04-06T04:36:19;101105.03;;;2.86;55.75
69402;BME280;56589;51.992;5.924;2023-04-06T04:38:45;101110.22;;;2.88;56.23
69402;BME280;56589;51.992;5.924;2023-04-06T04:41:11;101109.31;;;2.89;55.93
69402;BME280;56589;51.992;5.924;2023-04-06T04:43:36;101108.41;;;2.90;55.85
69402;BME280;56589;51.992;5.924;2023-04-06T04:46:04;101109.22;;;2.92;55.68
69402;BME280;56589;51.992;5.924;2023-04-06T04:48:32;101104.84;;;2.94;55.95
69402;BME280;56589;51.992;5.924;2023-04-06T04:50:58;101101.31;;;2.96;55.93
69402;BME280;56589;51.992;5.924;2023-04-06T04:53:24;101099.50;;;2.98;55.46
69402;BME280;56589;51.992;5.924;2023-04-06T04:55:50;101098.53;;;3.02;55.83
69402;BME280;56589;51.992;5.924;2023-04-06T04:58:18;101100.25;;;3.03;55.76
69402;BME280;56589;51.992;5.924;2023-04-06T05:00:44;101094.16;;;3.04;55.83
69402;BME280;56589;51.992;5.924;2023-04-06T05:03:14;101094.22;;;3.03;55.85
69402;BME280;56589;51.992;5.924;2023-04-06T05:05:46;101092.41;;;3.05;55.81
69402;BME280;56589;51.992;5.924;2023-04-06T05:08:11;101095.72;;;3.10;55.96
69402;BME280;56589;51.992;5.924;2023-04-06T05:10:42;101101.69;;;3.14;55.92
69402;BME280;56589;51.992;5.924;2023-04-06T05:13:08;101092.94;;;3.18;55.64
69402;BME280;56589;51.992;5.924;2023-04-06T05:15:34;101094.53;;;3.22;55.56
69402;BME280;56589;51.992;5.924;2023-04-06T05:18:00;101097.06;;;3.25;55.63
69402;BME280;56589;51.992;5.924;2023-04-06T05:20:26;101090.03;;;3.28;55.86
69402;BME280;56589;51.992;5.924;2023-04-06T05:22:54;101083.91;;;3.31;55.47
69402;BME280;56589;51.992;5.924;2023-04-06T05:25:20;101085.50;;;3.35;55.77
69402;BME280;56589;51.992;5.924;2023-04-06T05:27:46;101092.34;;;3.38;55.45
69402;BME280;56589;51.992;5.924;2023-04-06T05:30:12;101093.03;;;3.44;55.10
69402;BME280;56589;51.992;5.924;2023-04-06T05:32:39;101087.66;;;3.50;55.31
69402;BME280;56589;51.992;5.924;2023-04-06T05:35:05;101092.59;;;3.58;55.59
69402;BME280;56589;51.992;5.924;2023-04-06T05:37:31;101082.88;;;3.65;55.45
69402;BME280;56589;51.992;5.924;2023-04-06T05:39:59;101076.56;;;3.73;55.49
69402;BME280;56589;51.992;5.924;2023-04-06T05:42:25;101077.88;;;3.87;55.55
69402;BME280;56589;51.992;5.924;2023-04-06T05:44:51;101079.13;;;4.01;55.63
69402;BME280;56589;51.992;5.924;2023-04-06T05:47:17;101066.50;;;4.17;55.50
69402;BME280;56589;51.992;5.924;2023-04-06T05:49:42;101076.22;;;4.37;55.55
69402;BME280;56589;51.992;5.924;2023-04-06T05:52:08;101074.50;;;4.62;55.13
69402;BME280;56589;51.992;5.924;2023-04-06T05:54:37;101080.25;;;4.97;55.16
69402;BME280;56589;51.992;5.924;2023-04-06T05:57:05;101076.16;;;5.13;54.18
69402;BME280;56589;51.992;5.924;2023-04-06T05:59:31;101077.75;;;5.17;53.60
69402;BME280;56589;51.992;5.924;2023-04-06T06:01:57;101080.34;;;5.17;53.68
69402;BME280;56589;51.992;5.924;2023-04-06T06:04:23;101077.66;;;5.21;53.28
69402;BME280;56589;51.992;5.924;2023-04-06T06:06:48;101074.06;;;5.23;53.56
69402;BME280;56589;51.992;5.924;2023-04-06T06:09:14;101075.44;;;5.33;53.30
69402;BME280;56589;51.992;5.924;2023-04-06T06:11:40;101077.59;;;5.44;53.17
69402;BME280;56589;51.992;5.924;2023-04-06T06:14:10;101079.03;;;5.53;52.88
69402;BME280;56589;51.992;5.924;2023-04-06T06:16:35;101075.81;;;5.68;53.63
69402;BME280;56589;51.992;5.924;2023-04-06T06:19:01;101071.81;;;6.03;53.87
69402;BME280;56589;51.992;5.924;2023-04-06T06:21:27;101071.41;;;6.54;53.59
69402;BME280;56589;51.992;5.924;2023-04-06T06:23:53;101074.91;;;6.94;52.69
69402;BME280;56589;51.992;5.924;2023-04-06T06:26:19;101069.22;;;7.05;51.42
69402;BME280;56589;51.992;5.924;2023-04-06T06:28:45;101070.63;;;6.92;51.10
69402;BME280;56589;51.992;5.924;2023-04-06T06:31:14;101073.88;;;6.78;50.30
69402;BME280;56589;51.992;5.924;2023-04-06T06:33:39;101069.25;;;6.64;50.93
69402;BME280;56589;51.992;5.924;2023-04-06T06:36:06;101075.66;;;6.57;50.93
69402;BME280;56589;51.992;5.924;2023-04-06T06:38:32;101073.97;;;6.56;51.12
69402;BME280;56589;51.992;5.924;2023-04-06T06:40:58;101084.00;;;6.65;51.64
69402;BME280;56589;51.992;5.924;2023-04-06T06:43:24;101084.69;;;6.89;51.22
69402;BME280;56589;51.992;5.924;2023-04-06T06:45:49;101089.59;;;7.16;50.87
69402;BME280;56589;51.992;5.924;2023-04-06T06:48:19;101080.03;;;7.35;50.66
69402;BME280;56589;51.992;5.924;2023-04-06T06:50:47;101079.50;;;7.47;49.99
69402;BME280;56589;51.992;5.924;2023-04-06T06:53:13;101076.81;;;7.49;49.15
69402;BME280;56589;51.992;5.924;2023-04-06T06:55:40;101079.34;;;7.50;49.25
69402;BME280;56589;51.992;5.924;2023-04-06T06:58:06;101074.84;;;7.54;49.01
69402;BME280;56589;51.992;5.924;2023-04-06T07:00:31;101077.91;;;7.62;49.24
69402;BME280;56589;51.992;5.924;2023-04-06T07:02:57;101063.56;;;7.71;48.53
69402;BME280;56589;51.992;5.924;2023-04-06T07:05:26;101057.56;;;7.69;48.46
69402;BME280;56589;51.992;5.924;2023-04-06T07:07:51;101065.50;;;7.67;48.14
69402;BME280;56589;51.992;5.924;2023-04-06T07:10:17;101063.25;;;7.59;48.58
69402;BME280;56589;51.992;5.924;2023-04-06T07:12:43;101065.22;;;7.54;48.85
69402;BME280;56589;51.992;5.924;2023-04-06T07:15:09;101061.91;;;7.51;48.80
69402;BME280;56589;51.992;5.924;2023-04-06T07:17:36;101059.28;;;7.51;48.90
69402;BME280;56589;51.992;5.924;2023-04-06T07:20:02;101053.94;;;7.54;49.11
69402;BME280;56589;51.992;5.924;2023-04-06T07:22:30;101050.19;;;7.59;49.02
69402;BME280;56589;51.992;5.924;2023-04-06T07:24:56;101060.41;;;7.64;49.05
69402;BME280;56589;51.992;5.924;2023-04-06T07:27:22;101054.81;;;7.72;48.90
69402;BME280;56589;51.992;5.924;2023-04-06T07:29:48;101051.00;;;7.79;48.51
69402;BME280;56589;51.992;5.924;2023-04-06T07:32:13;101053.81;;;7.74;48.68
69402;BME280;56589;51.992;5.924;2023-04-06T07:34:39;101054.75;;;7.73;48.72
69402;BME280;56589;51.992;5.924;2023-04-06T07:37:05;101052.81;;;7.77;48.54
69402;BME280;56589;51.992;5.924;2023-04-06T07:39:33;101051.13;;;7.76;48.57
69402;BME280;56589;51.992;5.924;2023-04-06T07:41:59;101050.06;;;7.80;48.43
69402;BME280;56589;51.992;5.924;2023-04-06T07:44:25;101053.78;;;7.93;48.84
69402;BME280;56589;51.992;5.924;2023-04-06T07:46:51;101044.41;;;8.06;48.51
69402;BME280;56589;51.992;5.924;2023-04-06T07:49:17;101048.03;;;8.21;48.38
69402;BME280;56589;51.992;5.924;2023-04-06T07:51:43;101060.19;;;8.39;48.35
69402;BME280;56589;51.992;5.924;2023-04-06T07:54:08;101047.25;;;8.54;48.17
69402;BME280;56589;51.992;5.924;2023-04-06T07:56:37;101054.38;;;8.67;47.80
69402;BME280;56589;51.992;5.924;2023-04-06T07:59:03;101054.91;;;8.74;47.20
69402;BME280;56589;51.992;5.924;2023-04-06T08:01:29;101048.69;;;8.77;47.27
69402;BME280;56589;51.992;5.924;2023-04-06T08:03:55;101048.69;;;8.77;47.16
69402;BME280;56589;51.992;5.924;2023-04-06T08:06:21;101050.19;;;8.81;47.05
69402;BME280;56589;51.992;5.924;2023-04-06T08:08:47;101043.44;;;8.77;46.74
69402;BME280;56589;51.992;5.924;2023-04-06T08:11:13;101044.09;;;8.64;47.06
69402;BME280;56589;51.992;5.924;2023-04-06T08:13:41;101039.16;;;8.58;47.08
69402;BME280;56589;51.992;5.924;2023-04-06T08:16:07;101038.97;;;8.46;47.22
69402;BME280;56589;51.992;5.924;2023-04-06T08:18:34;101041.94;;;8.38;47.42
69402;BME280;56589;51.992;5.924;2023-04-06T08:21:00;101039.59;;;8.33;47.50
69402;BME280;56589;51.992;5.924;2023-04-06T08:23:26;101029.56;;;8.24;47.70
69402;BME280;56589;51.992;5.924;2023-04-06T08:25:52;101036.72;;;8.21;47.91
69402;BME280;56589;51.992;5.924;2023-04-06T08:28:17;101033.25;;;8.20;48.07
69402;BME280;56589;51.992;5.924;2023-04-06T08:30:46;101034.66;;;8.27;48.35
69402;BME280;56589;51.992;5.924;2023-04-06T08:33:13;101034.19;;;8.36;48.61
69402;BME280;56589;51.992;5.924;2023-04-06T08:35:39;101028.41;;;8.47;48.04
69402;BME280;56589;51.992;5.924;2023-04-06T08:38:05;101032.22;;;8.57;47.97
69402;BME280;56589;51.992;5.924;2023-04-06T08:40:36;101030.81;;;8.67;47.97
69402;BME280;56589;51.992;5.924;2023-04-06T08:43:03;101031.34;;;8.74;47.61
69402;BME280;56589;51.992;5.924;2023-04-06T08:45:34;101030.88;;;8.83;47.62
69402;BME280;56589;51.992;5.924;2023-04-06T08:48:04;101024.91;;;8.97;47.27
69402;BME280;56589;51.992;5.924;2023-04-06T08:50:32;101025.09;;;9.10;47.40
69402;BME280;56589;51.992;5.924;2023-04-06T08:52:59;101026.03;;;9.25;46.78
69402;BME280;56589;51.992;5.924;2023-04-06T08:55:26;101026.41;;;9.34;46.21
69402;BME280;56589;51.992;5.924;2023-04-06T08:57:52;101023.63;;;9.37;46.07
69402;BME280;56589;51.992;5.924;2023-04-06T09:00:20;101023.28;;;9.43;46.00
69402;BME280;56589;51.992;5.924;2023-04-06T09:02:47;101027.31;;;9.49;46.07
69402;BME280;56589;51.992;5.924;2023-04-06T09:05:17;101028.69;;;9.56;45.82
69402;BME280;56589;51.992;5.924;2023-04-06T09:07:45;101036.28;;;9.61;45.82
69402;BME280;56589;51.992;5.924;2023-04-06T09:10:10;101032.31;;;9.69;45.92
69402;BME280;56589;51.992;5.924;2023-04-06T09:12:36;101031.69;;;9.80;45.62
69402;BME280;56589;51.992;5.924;2023-04-06T09:15:04;101036.56;;;9.86;45.67
69402;BME280;56589;51.992;5.924;2023-04-06T09:17:32;101031.84;;;9.93;45.62
69402;BME280;56589;51.992;5.924;2023-04-06T09:19:59;101031.88;;;10.07;45.78
69402;BME280;56589;51.992;5.924;2023-04-06T09:22:35;101033.13;;;10.16;45.27
69402;BME280;56589;51.992;5.924;2023-04-06T09:25:01;101027.25;;;10.26;45.53
69402;BME280;56589;51.992;5.924;2023-04-06T09:27:30;101025.59;;;10.40;45.52
69402;BME280;56589;51.992;5.924;2023-04-06T09:30:03;101028.44;;;10.51;45.48
69402;BME280;56589;51.992;5.924;2023-04-06T09:32:30;101029.38;;;10.64;45.16
69402;BME280;56589;51.992;5.924;2023-04-06T09:35:05;101033.13;;;10.74;45.23
69402;BME280;56589;51.992;5.924;2023-04-06T09:37:37;101034.38;;;10.83;44.83
69402;BME280;56589;51.992;5.924;2023-04-06T09:40:05;101036.28;;;10.81;45.06
69402;BME280;56589;51.992;5.924;2023-04-06T09:42:32;101031.66;;;10.84;45.09
69402;BME280;56589;51.992;5.924;2023-04-06T09:44:57;101031.09;;;10.94;45.00
69402;BME280;56589;51.992;5.924;2023-04-06T09:47:24;101032.41;;;11.01;44.64
69402;BME280;56589;51.992;5.924;2023-04-06T09:49:55;101029.50;;;11.05;45.01
69402;BME280;56589;51.992;5.924;2023-04-06T09:52:24;101029.31;;;11.08;44.77
69402;BME280;56589;51.992;5.924;2023-04-06T09:54:59;101027.91;;;11.17;45.08
69402;BME280;56589;51.992;5.924;2023-04-06T09:57:32;101026.91;;;11.32;45.23
69402;BME280;56589;51.992;5.924;2023-04-06T10:00:06;101030.06;;;11.52;44.61
69402;BME280;56589;51.992;5.924;2023-04-06T10:02:39;101021.09;;;11.69;44.59
69402;BME280;56589;51.992;5.924;2023-04-06T10:05:20;101019.16;;;11.85;44.73
69402;BME280;56589;51.992;5.924;2023-04-06T10:07:53;101020.88;;;11.99;44.25
69402;BME280;56589;51.992;5.924;2023-04-06T10:10:27;101019.31;;;12.09;43.70
69402;BME280;56589;51.992;5.924;2023-04-06T10:12:54;101020.16;;;12.09;44.10
69402;BME280;56589;51.992;5.924;2023-04-06T10:15:21;101021.63;;;12.13;44.16
69402;BME280;56589;51.992;5.924;2023-04-06T10:17:47;101030.19;;;12.17;43.80
69402;BME280;56589;51.992;5.924;2023-04-06T10:20:18;101032.53;;;12.22;43.46
69402;BME280;56589;51.992;5.924;2023-04-06T10:22:55;101027.66;;;12.15;43.00
69402;BME280;56589;51.992;5.924;2023-04-06T10:25:31;101029.44;;;12.15;43.24
69402;BME280;56589;51.992;5.924;2023-04-06T10:28:00;101029.81;;;12.23;43.05
69402;BME280;56589;51.992;5.924;2023-04-06T10:30:30;101028.84;;;12.24;43.57
69402;BME280;56589;51.992;5.924;2023-04-06T10:32:57;101028.13;;;12.22;43.31
69402;BME280;56589;51.992;5.924;2023-04-06T10:35:23;101028.84;;;12.24;43.54
69402;BME280;56589;51.992;5.924;2023-04-06T10:37:53;101033.91;;;12.27;43.27
69402;BME280;56589;51.992;5.924;2023-04-06T10:40:26;101034.00;;;12.26;43.15
69402;BME280;56589;51.992;5.924;2023-04-06T10:42:55;101034.91;;;12.12;43.11
69402;BME280;56589;51.992;5.924;2023-04-06T10:45:33;101020.47;;;12.05;43.44
69402;BME280;56589;51.992;5.924;2023-04-06T10:47:59;101027.41;;;12.06;43.37
69402;BME280;56589;51.992;5.924;2023-04-06T10:50:25;101022.91;;;12.08;43.43
69402;BME280;56589;51.992;5.924;2023-04-06T10:53:00;101019.31;;;12.09;43.22
69402;BME280;56589;51.992;5.924;2023-04-06T10:55:27;101016.69;;;12.09;43.23
69402;BME280;56589;51.992;5.924;2023-04-06T10:57:56;101020.34;;;12.06;43.58
69402;BME280;56589;51.992;5.924;2023-04-06T11:00:22;101014.78;;;12.11;43.91
69402;BME280;56589;51.992;5.924;2023-04-06T11:02:48;101021.91;;;12.23;43.67
69402;BME280;56589;51.992;5.924;2023-04-06T11:05:14;101027.19;;;12.36;43.62
69402;BME280;56589;51.992;5.924;2023-04-06T11:07:41;101026.22;;;12.50;43.73
69402;BME280;56589;51.992;5.924;2023-04-06T11:10:08;101018.34;;;12.62;43.79
69402;BME280;56589;51.992;5.924;2023-04-06T11:12:34;101021.19;;;12.72;43.37
69402;BME280;56589;51.992;5.924;2023-04-06T11:15:03;101023.19;;;12.81;43.52
69402;BME280;56589;51.992;5.924;2023-04-06T11:17:30;101022.31;;;12.81;43.67
69402;BME280;56589;51.992;5.924;2023-04-06T11:19:57;101022.69;;;12.76;43.66
69402;BME280;56589;51.992;5.924;2023-04-06T11:22:24;101016.88;;;12.71;43.86
69402;BME280;56589;51.992;5.924;2023-04-06T11:24:50;101021.41;;;12.69;43.97
69402;BME280;56589;51.992;5.924;2023-04-06T11:27:17;101022.16;;;12.71;44.01
69402;BME280;56589;51.992;5.924;2023-04-06T11:29:43;101020.75;;;12.78;43.82
69402;BME280;56589;51.992;5.924;2023-04-06T11:32:20;101022.78;;;12.87;44.10
69402;BME280;56589;51.992;5.924;2023-04-06T11:34:47;101012.28;;;12.98;43.70
69402;BME280;56589;51.992;5.924;2023-04-06T11:37:14;101014.00;;;13.00;43.61
69402;BME280;56589;51.992;5.924;2023-04-06T11:39:43;101019.59;;;12.95;44.14
69402;BME280;56589;51.992;5.924;2023-04-06T11:42:12;101016.63;;;12.87;43.79
69402;BME280;56589;51.992;5.924;2023-04-06T11:44:39;101019.09;;;12.77;44.07
69402;BME280;56589;51.992;5.924;2023-04-06T11:47:09;101010.53;;;12.74;44.57
69402;BME280;56589;51.992;5.924;2023-04-06T11:49:38;101007.50;;;12.67;44.53
69402;BME280;56589;51.992;5.924;2023-04-06T11:52:15;101005.50;;;12.58;45.54
69402;BME280;56589;51.992;5.924;2023-04-06T11:54:41;101017.50;;;12.49;46.03
69402;BME280;56589;51.992;5.924;2023-04-06T11:57:08;101009.28;;;12.41;46.31
69402;BME280;56589;51.992;5.924;2023-04-06T11:59:35;101013.69;;;12.28;47.08
69402;BME280;56589;51.992;5.924;2023-04-06T12:02:01;101012.16;;;12.11;47.26
69402;BME280;56589;51.992;5.924;2023-04-06T12:04:30;101010.84;;;11.91;48.38
69402;BME280;56589;51.992;5.924;2023-04-06T12:06:57;101016.50;;;11.72;49.59
69402;BME280;56589;51.992;5.924;2023-04-06T12:09:23;101022.53;;;11.60;50.56
69402;BME280;56589;51.992;5.924;2023-04-06T12:11:49;101017.13;;;11.49;51.43
69402;BME280;56589;51.992;5.924;2023-04-06T12:14:16;101012.25;;;11.43;51.82
69402;BME280;56589;51.992;5.924;2023-04-06T12:16:42;101020.44;;;11.38;52.06
69402;BME280;56589;51.992;5.924;2023-04-06T12:19:08;101024.41;;;11.31;52.29
69402;BME280;56589;51.992;5.924;2023-04-06T12:21:36;101019.72;;;11.22;53.02
69402;BME280;56589;51.992;5.924;2023-04-06T12:24:02;101017.94;;;11.08;52.86
69402;BME280;56589;51.992;5.924;2023-04-06T12:26:29;101018.88;;;11.07;53.43
69402;BME280;56589;51.992;5.924;2023-04-06T12:28:56;101017.31;;;11.04;53.78
69402;BME280;56589;51.992;5.924;2023-04-06T12:31:23;101013.38;;;10.97;54.29
69402;BME280;56589;51.992;5.924;2023-04-06T12:33:49;101011.69;;;10.82;54.23
69402;BME280;56589;51.992;5.924;2023-04-06T12:36:16;101016.13;;;10.66;54.59
69402;BME280;56589;51.992;5.924;2023-04-06T12:38:46;101015.50;;;10.48;55.29
69402;BME280;56589;51.992;5.924;2023-04-06T12:41:13;101023.91;;;10.39;55.91
69402;BME280;56589;51.992;5.924;2023-04-06T12:43:39;101014.81;;;10.30;56.07
69402;BME280;56589;51.992;5.924;2023-04-06T12:46:06;101003.06;;;10.21;56.25
69402;BME280;56589;51.992;5.924;2023-04-06T12:48:31;101007.09;;;10.13;56.76
69402;BME280;56589;51.992;5.924;2023-04-06T12:51:06;101004.72;;;10.08;57.89
69402;BME280;56589;51.992;5.924;2023-04-06T12:53:32;101000.03;;;9.99;57.34
69402;BME280;56589;51.992;5.924;2023-04-06T12:56:02;101000.63;;;9.88;57.15